createdAt,value
2018-04-22T00:01:05.617Z,99.90
2018-04-22T00:03:33.099Z,99.70
2018-04-22T00:06:00.567Z,99.90
2018-04-22T00:08:28.046Z,99.90
2018-04-22T00:10:56.372Z,99.80
2018-04-22T00:13:23.888Z,99.80
2018-04-22T00:15:52.156Z,99.90
2018-04-22T00:18:20.437Z,99.90
2018-04-22T00:20:48.669Z,99.90
2018-04-22T00:23:16.178Z,99.90
2018-04-22T00:25:44.455Z,99.90
2018-04-22T00:28:12.701Z,99.90
2018-04-22T00:30:40.207Z,99.90
2018-04-22T00:33:07.724Z,99.90
2018-04-22T00:35:35.958Z,99.90
2018-04-22T00:38:04.247Z,99.90
2018-04-22T00:40:31.752Z,99.90
2018-04-22T00:43:00.036Z,99.90
2018-04-22T00:45:27.540Z,99.90
2018-04-22T00:47:55.064Z,99.90
2018-04-22T00:50:22.564Z,99.90
2018-04-22T00:52:50.042Z,99.90
2018-04-22T00:55:18.316Z,99.90
2018-04-22T00:57:45.833Z,99.90
2018-04-22T01:00:13.319Z,99.90
2018-04-22T01:02:40.829Z,99.90
2018-04-22T01:05:08.344Z,99.90
2018-04-22T01:07:35.841Z,99.90
2018-04-22T01:10:03.365Z,99.90
2018-04-22T01:12:31.598Z,99.90
2018-04-22T01:14:59.082Z,99.90
2018-04-22T01:17:26.592Z,99.90
2018-04-22T01:19:54.066Z,99.90
2018-04-22T01:22:21.575Z,99.90
2018-04-22T01:24:49.855Z,99.90
2018-04-22T01:27:18.129Z,99.90
2018-04-22T01:29:46.375Z,99.90
2018-04-22T01:32:13.888Z,99.90
2018-04-22T01:34:41.363Z,99.90
2018-04-22T01:37:08.869Z,99.90
2018-04-22T01:39:36.349Z,99.90
2018-04-22T01:42:03.821Z,99.90
2018-04-22T01:44:31.348Z,99.90
2018-04-22T01:46:59.582Z,99.90
2018-04-22T01:49:27.057Z,99.90
2018-04-22T01:51:54.573Z,99.90
2018-04-22T01:54:22.046Z,99.90
2018-04-22T01:56:49.515Z,99.90
2018-04-22T01:59:16.996Z,99.90
2018-04-22T02:01:44.466Z,99.90
2018-04-22T02:04:12.755Z,99.90
2018-04-22T02:06:40.982Z,99.90
2018-04-22T02:09:09.080Z,99.90
2018-04-22T02:11:36.553Z,99.90
2018-04-22T02:14:04.837Z,99.90
2018-04-22T02:16:32.299Z,99.90
2018-04-22T02:18:59.782Z,99.90
2018-04-22T02:21:27.287Z,99.90
2018-04-22T02:23:55.531Z,99.90
2018-04-22T02:26:23.815Z,99.90
2018-04-22T02:28:51.294Z,99.90
2018-04-22T02:31:19.564Z,99.90
2018-04-22T02:33:47.084Z,99.90
2018-04-22T02:36:14.585Z,99.90
2018-04-22T02:38:42.826Z,99.90
2018-04-22T02:41:10.307Z,99.90
2018-04-22T02:43:37.832Z,99.90
2018-04-22T02:46:06.091Z,99.90
2018-04-22T02:48:33.596Z,99.90
2018-04-22T02:51:01.079Z,99.90
2018-04-22T02:53:29.348Z,99.90
2018-04-22T02:55:57.651Z,99.90
2018-04-22T02:58:25.126Z,99.90
2018-04-22T03:00:52.613Z,99.90
2018-04-22T03:03:20.087Z,99.90
2018-04-22T03:05:48.335Z,99.90
2018-04-22T03:08:15.844Z,99.90
2018-04-22T03:10:43.338Z,99.90
2018-04-22T03:13:10.841Z,99.90
2018-04-22T03:15:39.077Z,99.90
2018-04-22T03:18:06.589Z,99.90
2018-04-22T03:20:34.067Z,99.90
2018-04-22T03:23:01.537Z,99.90
2018-04-22T03:25:29.820Z,99.90
2018-04-22T03:27:58.050Z,99.90
2018-04-22T03:30:25.536Z,99.90
2018-04-22T03:32:53.044Z,99.90
2018-04-22T03:37:55.294Z,99.90
2018-04-22T03:40:22.778Z,99.90
2018-04-22T03:42:50.251Z,99.90
2018-04-22T03:45:18.501Z,99.90
2018-04-22T03:47:45.970Z,99.90
2018-04-22T03:50:13.492Z,99.90
2018-04-22T03:52:40.995Z,99.90
2018-04-22T03:55:09.275Z,99.90
2018-04-22T03:57:37.540Z,99.90
2018-04-22T04:00:05.841Z,99.90
2018-04-22T04:02:34.070Z,99.90
2018-04-22T04:05:01.587Z,99.90
2018-04-22T04:07:29.093Z,99.90
2018-04-22T04:09:56.608Z,99.90
2018-04-22T04:12:24.108Z,99.90
2018-04-22T04:14:51.622Z,99.90
2018-04-22T04:17:19.094Z,99.90
2018-04-22T04:19:58.524Z,99.90
2018-04-22T04:22:37.979Z,99.90
2018-04-22T04:25:29.178Z,99.90
2018-04-22T04:27:56.644Z,99.90
2018-04-22T04:30:24.966Z,99.90
2018-04-22T04:32:53.206Z,99.90
2018-04-22T04:35:20.723Z,99.90
2018-04-22T04:37:48.188Z,99.90
2018-04-22T04:40:15.671Z,99.90
2018-04-22T04:42:43.172Z,99.90
2018-04-22T04:45:11.423Z,99.90
2018-04-22T04:47:38.890Z,99.90
2018-04-22T04:50:06.396Z,99.90
2018-04-22T04:52:33.910Z,99.90
2018-04-22T04:55:01.378Z,99.90
2018-04-22T04:57:29.655Z,99.90
2018-04-22T04:59:57.924Z,99.90
2018-04-22T05:02:26.202Z,99.90
2018-04-22T05:04:54.431Z,99.90
2018-04-22T05:07:21.913Z,99.90
2018-04-22T05:09:49.416Z,99.90
2018-04-22T05:12:16.932Z,99.90
2018-04-22T05:14:44.432Z,99.90
2018-04-22T05:17:11.947Z,99.50
2018-04-22T05:19:39.447Z,99.90
2018-04-22T05:22:06.968Z,98.70
2018-04-22T05:24:34.472Z,96.50
2018-04-22T05:27:02.005Z,96.20
2018-04-22T05:29:29.496Z,95.00
2018-04-22T05:31:56.986Z,94.50
2018-04-22T05:34:24.453Z,93.40
2018-04-22T05:36:51.984Z,92.50
2018-04-22T05:39:19.471Z,91.30
2018-04-22T05:41:47.060Z,88.60
2018-04-22T05:44:15.287Z,83.70
2018-04-22T05:46:42.787Z,83.60
2018-04-22T05:49:11.060Z,74.90
2018-04-22T05:51:39.302Z,70.30
2018-04-22T05:54:06.791Z,70.30
2018-04-22T05:56:35.088Z,65.20
2018-04-22T05:59:02.583Z,65.20
2018-04-22T06:01:31.088Z,63.50
2018-04-22T06:03:58.639Z,62.30
2018-04-22T06:06:26.150Z,64.90
2018-04-22T06:08:53.627Z,63.70
2018-04-22T06:11:21.185Z,60.90
2018-04-22T06:13:48.716Z,60.90
2018-04-22T06:16:16.259Z,61.50
2018-04-22T06:18:44.502Z,62.80
2018-04-22T06:21:12.016Z,62.70
2018-04-22T06:23:39.517Z,62.00
2018-04-22T06:26:07.065Z,60.90
2018-04-22T06:28:34.558Z,57.40
2018-04-22T06:31:02.868Z,55.60
2018-04-22T06:33:30.409Z,55.70
2018-04-22T06:35:57.971Z,54.70
2018-04-22T06:38:25.452Z,53.00
2018-04-22T06:40:52.966Z,56.20
2018-04-22T06:43:21.320Z,54.80
2018-04-22T06:45:48.827Z,54.70
2018-04-22T06:48:16.339Z,54.00
2018-04-22T06:50:44.596Z,51.30
2018-04-22T06:53:12.095Z,51.20
2018-04-22T06:55:40.387Z,50.70
2018-04-22T06:58:07.879Z,50.60
2018-04-22T07:00:35.345Z,50.20
2018-04-22T07:03:03.670Z,49.80
2018-04-22T07:05:31.202Z,50.00
2018-04-22T07:07:58.690Z,49.50
2018-04-22T07:10:26.158Z,50.60
2018-04-22T07:12:53.724Z,49.70
2018-04-22T07:15:21.200Z,48.10
2018-04-22T07:17:48.777Z,48.90
2018-04-22T07:20:16.293Z,47.80
2018-04-22T07:22:43.818Z,49.40
2018-04-22T07:25:12.049Z,49.00
2018-04-22T07:27:39.533Z,49.00
2018-04-22T07:30:07.036Z,47.60
2018-04-22T07:32:34.559Z,48.00
2018-04-22T07:35:02.063Z,48.40
2018-04-22T07:37:29.557Z,48.80
2018-04-22T07:39:57.063Z,48.30
2018-04-22T07:42:24.621Z,48.30
2018-04-22T07:44:52.871Z,48.80
2018-04-22T07:47:21.122Z,46.30
2018-04-22T07:49:48.594Z,46.20
2018-04-22T07:52:16.119Z,48.00
2018-04-22T07:54:43.632Z,46.70
2018-04-22T07:57:11.881Z,44.70
2018-04-22T07:59:39.358Z,44.70
2018-04-22T08:02:07.645Z,43.50
2018-04-22T08:04:35.979Z,43.10
2018-04-22T08:07:03.495Z,43.10
2018-04-22T08:09:31.009Z,43.30
2018-04-22T08:11:58.523Z,42.70
2018-04-22T08:14:25.990Z,41.10
2018-04-22T08:16:53.512Z,40.10
2018-04-22T08:19:20.978Z,41.60
2018-04-22T08:21:48.459Z,39.50
2018-04-22T08:24:15.976Z,44.30
2018-04-22T08:26:44.206Z,41.20
2018-04-22T08:29:11.742Z,41.30
2018-04-22T08:31:39.255Z,42.00
2018-04-22T08:34:06.772Z,41.80
2018-04-22T08:36:34.233Z,41.50
2018-04-22T08:39:01.730Z,41.70
2018-04-22T08:41:30.007Z,41.40
2018-04-22T08:43:58.353Z,43.10
2018-04-22T08:46:25.849Z,42.90
2018-04-22T08:48:54.098Z,40.60
2018-04-22T08:51:21.607Z,40.70
2018-04-22T08:53:49.102Z,42.30
2018-04-22T08:56:16.595Z,42.50
2018-04-22T08:58:44.838Z,45.50
2018-04-22T09:01:12.324Z,45.50
2018-04-22T09:03:40.579Z,49.30
2018-04-22T09:06:08.053Z,49.20
2018-04-22T09:08:36.356Z,48.30
2018-04-22T09:11:03.868Z,48.30
2018-04-22T09:13:31.400Z,48.30
2018-04-22T09:15:58.899Z,50.00
2018-04-22T09:18:27.188Z,51.30
2018-04-22T09:20:55.423Z,53.10
2018-04-22T09:23:22.908Z,53.10
2018-04-22T09:25:51.189Z,50.10
2018-04-22T09:28:19.471Z,50.00
2018-04-22T09:30:47.740Z,51.70
2018-04-22T09:33:15.989Z,53.70
2018-04-22T09:35:43.471Z,53.70
2018-04-22T09:38:11.760Z,51.60
2018-04-22T09:40:39.271Z,51.40
2018-04-22T09:43:06.803Z,51.70
2018-04-22T09:45:34.294Z,51.80
2018-04-22T09:48:01.773Z,51.40
2018-04-22T09:50:30.019Z,51.70
2018-04-22T09:52:57.539Z,51.70
2018-04-22T09:55:25.010Z,51.00
2018-04-22T09:57:52.537Z,50.00
2018-04-22T10:00:26.495Z,55.00
2018-04-22T10:02:54.780Z,53.80
2018-04-22T10:05:22.287Z,53.80
2018-04-22T10:07:49.812Z,51.50
2018-04-22T10:10:17.307Z,52.40
2018-04-22T10:12:44.828Z,49.20
2018-04-22T10:15:13.108Z,52.10
2018-04-22T10:17:40.623Z,51.40
2018-04-22T10:20:08.124Z,49.20
2018-04-22T10:22:35.683Z,51.10
2018-04-22T10:25:03.199Z,52.60
2018-04-22T10:27:30.666Z,49.50
2018-04-22T10:29:58.154Z,49.20
2018-04-22T10:32:26.395Z,51.90
2018-04-22T10:34:53.913Z,51.70
2018-04-22T10:37:21.394Z,51.70
2018-04-22T10:39:48.905Z,50.80
2018-04-22T10:42:16.382Z,49.30
2018-04-22T10:44:43.870Z,49.40
2018-04-22T10:47:11.330Z,49.40
2018-04-22T10:49:38.810Z,49.30
2018-04-22T10:52:06.282Z,47.30
2018-04-22T10:54:33.771Z,47.30
2018-04-22T10:57:01.239Z,46.70
2018-04-22T10:59:28.723Z,52.30
2018-04-22T11:01:56.236Z,49.20
2018-04-22T11:04:24.482Z,50.70
2018-04-22T11:06:51.951Z,50.70
2018-04-22T11:09:20.232Z,52.30
2018-04-22T11:11:48.570Z,49.00
2018-04-22T11:14:16.827Z,49.10
2018-04-22T11:16:44.279Z,49.00
2018-04-22T11:19:11.762Z,49.70
2018-04-22T11:21:39.273Z,48.90
2018-04-22T11:24:06.789Z,49.40
2018-04-22T11:26:34.292Z,49.40
2018-04-22T11:29:01.780Z,48.00
2018-04-22T11:31:29.284Z,48.10
2018-04-22T11:33:57.564Z,47.60
2018-04-22T11:36:25.836Z,47.60
2018-04-22T11:38:53.343Z,48.10
2018-04-22T11:41:20.827Z,45.10
2018-04-22T11:43:48.329Z,47.10
2018-04-22T11:46:15.842Z,46.20
2018-04-22T11:48:43.320Z,48.00
2018-04-22T11:51:10.848Z,48.10
2018-04-22T11:53:38.359Z,47.30
2018-04-22T11:56:05.942Z,45.60
2018-04-22T11:58:33.414Z,44.70
2018-04-22T12:01:00.937Z,45.00
2018-04-22T12:03:28.443Z,45.90
2018-04-22T12:05:55.919Z,45.90
2018-04-22T12:08:23.431Z,43.50
2018-04-22T12:10:50.906Z,44.20
2018-04-22T12:13:18.379Z,42.40
2018-04-22T12:15:45.894Z,44.20
2018-04-22T12:18:13.359Z,43.60
2018-04-22T12:20:40.829Z,44.40
2018-04-22T12:23:08.340Z,43.90
2018-04-22T12:25:36.616Z,46.20
2018-04-22T12:28:04.887Z,45.90
2018-04-22T12:30:33.168Z,45.50
2018-04-22T12:33:01.398Z,44.90
2018-04-22T12:35:28.915Z,44.90
2018-04-22T12:37:56.428Z,46.30
2018-04-22T12:40:23.924Z,43.90
2018-04-22T12:42:51.426Z,43.30
2018-04-22T12:45:18.944Z,44.30
2018-04-22T12:47:46.416Z,44.30
2018-04-22T12:50:13.947Z,45.60
2018-04-22T12:52:42.181Z,46.80
2018-04-22T12:55:09.709Z,46.80
2018-04-22T12:57:37.212Z,44.60
2018-04-22T13:00:04.733Z,44.90
2018-04-22T13:02:32.236Z,46.00
2018-04-22T13:04:59.752Z,44.10
2018-04-22T13:07:27.260Z,44.30
2018-04-22T13:09:55.510Z,44.70
2018-04-22T13:12:23.030Z,44.60
2018-04-22T13:14:50.537Z,45.50
2018-04-22T13:17:18.022Z,47.00
2018-04-22T13:19:45.546Z,44.70
2018-04-22T13:22:13.021Z,43.60
2018-04-22T13:24:41.254Z,45.10
2018-04-22T13:27:08.734Z,44.90
2018-04-22T13:29:36.200Z,43.70
2018-04-22T13:32:03.723Z,45.20
2018-04-22T13:34:31.212Z,44.20
2018-04-22T13:36:58.703Z,45.60
2018-04-22T13:39:26.307Z,47.80
2018-04-22T13:41:53.783Z,46.90
2018-04-22T13:44:21.257Z,44.70
2018-04-22T13:46:49.495Z,45.70
2018-04-22T13:49:17.008Z,45.50
2018-04-22T13:51:44.500Z,46.00
2018-04-22T13:54:11.982Z,46.30
2018-04-22T13:56:39.462Z,45.20
2018-04-22T13:59:07.694Z,45.60
2018-04-22T14:01:35.167Z,45.60
2018-04-22T14:04:02.678Z,45.60
2018-04-22T14:06:30.188Z,46.10
2018-04-22T14:08:57.654Z,45.90
2018-04-22T14:11:25.176Z,46.50
2018-04-22T14:13:52.680Z,48.40
2018-04-22T14:16:20.960Z,49.40
2018-04-22T14:18:49.224Z,49.20
2018-04-22T14:21:16.696Z,49.30
2018-04-22T14:23:44.927Z,48.80
2018-04-22T14:26:12.451Z,48.80
2018-04-22T14:28:39.951Z,48.90
2018-04-22T14:31:07.468Z,47.00
2018-04-22T14:33:34.928Z,47.20
2018-04-22T14:36:02.394Z,46.40
2018-04-22T14:38:29.874Z,46.70
2018-04-22T14:40:57.343Z,46.40
2018-04-22T14:43:24.855Z,46.90
2018-04-22T14:46:04.324Z,48.10
2018-04-22T14:48:31.836Z,47.10
2018-04-22T14:50:59.336Z,46.50
2018-04-22T14:53:26.814Z,46.70
2018-04-22T14:55:54.329Z,46.70
2018-04-22T14:58:21.853Z,47.00
2018-04-22T15:00:50.083Z,46.10
2018-04-22T15:03:17.610Z,46.00
2018-04-22T15:05:45.071Z,46.30
2018-04-22T15:08:12.554Z,46.20
2018-04-22T15:10:40.018Z,46.00
2018-04-22T15:13:07.543Z,47.10
2018-04-22T15:15:35.044Z,46.80
2018-04-22T15:18:02.514Z,46.90
2018-04-22T15:20:29.990Z,47.70
2018-04-22T15:22:58.272Z,49.10
2018-04-22T15:25:26.551Z,48.30
2018-04-22T15:27:54.799Z,48.80
2018-04-22T15:30:22.307Z,48.80
2018-04-22T15:32:49.827Z,49.10
2018-04-22T15:35:18.059Z,48.30
2018-04-22T15:37:45.570Z,48.10
2018-04-22T15:40:13.839Z,48.60
2018-04-22T15:42:42.104Z,47.20
2018-04-22T15:45:09.588Z,47.10
2018-04-22T15:47:37.071Z,47.50
2018-04-22T15:50:04.578Z,46.30
2018-04-22T15:52:32.092Z,47.40
2018-04-22T15:54:59.593Z,48.90
2018-04-22T15:57:27.080Z,49.70
2018-04-22T15:59:54.544Z,49.30
2018-04-22T16:02:22.027Z,49.80
2018-04-22T16:04:49.536Z,50.20
2018-04-22T16:07:17.769Z,49.00
2018-04-22T16:09:45.239Z,49.00
2018-04-22T16:12:12.719Z,50.00
2018-04-22T16:14:40.973Z,48.60
2018-04-22T16:17:08.442Z,48.80
2018-04-22T16:19:36.717Z,48.20
2018-04-22T16:22:04.193Z,48.30
2018-04-22T16:24:32.460Z,48.60
2018-04-22T16:27:00.747Z,47.60
2018-04-22T16:29:29.025Z,47.90
2018-04-22T16:31:56.488Z,47.90
2018-04-22T16:34:24.012Z,48.00
2018-04-22T16:36:51.520Z,48.40
2018-04-22T16:39:19.003Z,49.60
2018-04-22T16:41:46.512Z,47.70
2018-04-22T16:44:14.005Z,49.30
2018-04-22T16:46:41.507Z,50.00
2018-04-22T16:49:09.035Z,49.50
2018-04-22T16:51:36.535Z,50.60
2018-04-22T16:54:04.779Z,52.20
2018-04-22T16:56:32.288Z,52.10
2018-04-22T16:58:59.771Z,52.70
2018-04-22T17:01:27.276Z,52.60
2018-04-22T17:03:55.520Z,51.90
2018-04-22T17:06:23.023Z,51.90
2018-04-22T17:08:50.495Z,53.20
2018-04-22T17:11:17.968Z,53.40
2018-04-22T17:13:45.487Z,53.60
2018-04-22T17:16:13.728Z,53.80
2018-04-22T17:18:41.216Z,53.80
2018-04-22T17:21:09.488Z,54.50
2018-04-22T17:23:37.789Z,55.00
2018-04-22T17:26:05.297Z,55.00
2018-04-22T17:28:32.812Z,57.30
2018-04-22T17:31:00.316Z,58.20
2018-04-22T17:33:27.844Z,57.50
2018-04-22T17:35:55.308Z,57.60
2018-04-22T17:38:22.799Z,57.90
2018-04-22T17:40:51.071Z,59.30
2018-04-22T17:43:18.584Z,59.20
2018-04-22T17:45:46.095Z,59.00
2018-04-22T17:48:14.397Z,60.30
2018-04-22T17:50:41.871Z,60.20
2018-04-22T17:53:09.376Z,60.20
2018-04-22T17:55:36.892Z,62.10
2018-04-22T17:58:04.362Z,64.20
2018-04-22T18:00:31.844Z,66.40
2018-04-22T18:02:59.353Z,67.60
2018-04-22T18:05:26.872Z,69.70
2018-04-22T18:07:54.345Z,69.50
2018-04-22T18:10:22.583Z,71.90
2018-04-22T18:12:50.097Z,71.90
2018-04-22T18:15:17.574Z,73.40
2018-04-22T18:17:45.076Z,74.70
2018-04-22T18:20:12.586Z,76.50
2018-04-22T18:22:40.080Z,75.40
2018-04-22T18:25:07.592Z,75.60
2018-04-22T18:27:35.059Z,77.90
2018-04-22T18:30:02.576Z,78.00
2018-04-22T18:32:30.811Z,80.10
2018-04-22T18:34:58.354Z,80.10
2018-04-22T18:37:25.861Z,80.10
2018-04-22T18:39:54.143Z,79.80
2018-04-22T18:42:22.408Z,80.80
2018-04-22T18:44:50.692Z,82.10
2018-04-22T18:47:18.926Z,82.20
2018-04-22T18:49:46.411Z,82.10
2018-04-22T18:52:13.916Z,81.30
2018-04-22T18:54:41.396Z,81.10
2018-04-22T18:57:08.899Z,80.50
2018-04-22T18:59:37.187Z,81.50
2018-04-22T19:02:04.688Z,81.50
2018-04-22T19:04:32.231Z,83.00
2018-04-22T19:06:59.748Z,83.60
2018-04-22T19:09:27.306Z,85.10
2018-04-22T19:11:55.545Z,85.70
2018-04-22T19:14:23.020Z,85.70
2018-04-22T19:16:50.490Z,86.10
2018-04-22T19:19:18.883Z,86.00
2018-04-22T19:21:47.039Z,86.80
2018-04-22T19:24:15.332Z,87.30
2018-04-22T19:26:43.563Z,88.00
2018-04-22T19:29:11.594Z,88.00
2018-04-22T19:31:39.058Z,88.20
2018-04-22T19:34:06.589Z,88.50
2018-04-22T19:36:34.064Z,88.70
2018-04-22T19:39:01.532Z,88.90
2018-04-22T19:41:29.024Z,89.10
2018-04-22T19:43:56.495Z,89.50
2018-04-22T19:46:24.004Z,89.80
2018-04-22T19:48:51.569Z,90.00
2018-04-22T19:51:19.109Z,90.10
2018-04-22T19:53:46.591Z,90.10
2018-04-22T19:56:14.057Z,90.20
2018-04-22T19:58:41.538Z,89.80
2018-04-22T20:01:09.023Z,89.60
2018-04-22T20:03:36.515Z,90.30
2018-04-22T20:06:04.033Z,90.10
2018-04-22T20:08:32.270Z,90.10
2018-04-22T20:10:59.755Z,90.10
2018-04-22T20:13:27.991Z,90.30
2018-04-22T20:15:55.474Z,90.30
2018-04-22T20:18:22.938Z,90.30
2018-04-22T20:20:51.238Z,90.70
2018-04-22T20:23:19.508Z,90.40
2018-04-22T20:25:47.811Z,90.50
2018-04-22T20:28:15.336Z,90.50
2018-04-22T20:30:43.566Z,90.90
2018-04-22T20:33:11.057Z,90.80
2018-04-22T20:35:39.364Z,91.10
2018-04-22T20:38:06.949Z,90.90
2018-04-22T20:40:34.422Z,90.90
2018-04-22T20:43:01.896Z,90.90
2018-04-22T20:45:29.404Z,90.50
2018-04-22T20:47:56.919Z,90.60
2018-04-22T20:50:24.496Z,90.70
2018-04-22T20:52:52.768Z,90.90
2018-04-22T20:55:21.052Z,91.10
2018-04-22T20:57:49.331Z,91.20
2018-04-22T21:00:16.855Z,91.20
2018-04-22T21:02:44.329Z,91.20
2018-04-22T21:05:12.616Z,91.40
2018-04-22T21:07:40.891Z,91.50
2018-04-22T21:10:09.183Z,91.50
2018-04-22T21:12:36.665Z,91.50
2018-04-22T21:15:04.940Z,91.60
2018-04-22T21:17:32.419Z,91.50
2018-04-22T21:19:59.928Z,91.70
2018-04-22T21:22:27.447Z,91.90
2018-04-22T21:24:54.948Z,92.00
2018-04-22T21:27:22.460Z,92.10
2018-04-22T21:29:49.925Z,92.10
2018-04-22T21:32:17.443Z,92.00
2018-04-22T21:34:44.963Z,91.90
2018-04-22T21:37:13.248Z,92.20
2018-04-22T21:39:40.716Z,92.20
2018-04-22T21:42:08.194Z,92.30
2018-04-22T21:44:35.707Z,92.40
2018-04-22T21:47:03.992Z,93.00
2018-04-22T21:49:31.496Z,92.90
2018-04-22T21:51:59.015Z,93.10
2018-04-22T21:54:26.511Z,93.20
2018-04-22T21:56:53.995Z,93.50
2018-04-22T21:59:21.466Z,93.60
2018-04-22T22:01:49.763Z,94.00
2018-04-22T22:04:17.267Z,94.00
2018-04-22T22:06:44.785Z,93.60
2018-04-22T22:09:12.293Z,94.10
2018-04-22T22:11:39.804Z,95.20
2018-04-22T22:14:07.304Z,96.10
2018-04-22T22:16:34.825Z,95.80
2018-04-22T22:19:02.290Z,96.60
2018-04-22T22:21:29.775Z,96.20
2018-04-22T22:23:57.252Z,96.50
2018-04-22T22:26:24.777Z,96.80
2018-04-22T22:28:52.336Z,96.80
2018-04-22T22:31:19.839Z,97.40
2018-04-22T22:33:48.070Z,97.90
2018-04-22T22:36:15.563Z,97.90
2018-04-22T22:38:43.844Z,98.70
2018-04-22T22:41:12.091Z,98.90
2018-04-22T22:43:39.599Z,98.90
2018-04-22T22:46:07.125Z,99.20
2018-04-22T22:48:34.635Z,99.30
2018-04-22T22:51:02.099Z,99.40
2018-04-22T22:53:29.625Z,99.40
2018-04-22T22:55:57.133Z,99.80
2018-04-22T22:58:24.643Z,99.90
2018-04-22T23:00:52.149Z,99.90
2018-04-22T23:03:19.663Z,99.90
2018-04-22T23:05:47.138Z,99.90
2018-04-22T23:08:14.655Z,99.50
2018-04-22T23:10:42.883Z,99.20
2018-04-22T23:13:10.363Z,99.20
2018-04-22T23:15:37.875Z,98.80
2018-04-22T23:18:05.357Z,98.20
2018-04-22T23:20:32.860Z,97.80
2018-04-22T23:23:01.098Z,97.20
2018-04-22T23:25:28.607Z,97.10
2018-04-22T23:27:56.131Z,96.80
2018-04-22T23:30:23.632Z,96.70
2018-04-22T23:32:51.122Z,96.60
2018-04-22T23:35:18.623Z,96.70
2018-04-22T23:37:46.917Z,95.80
2018-04-22T23:40:14.379Z,95.80
2018-04-22T23:42:41.862Z,95.80
2018-04-22T23:45:09.331Z,95.50
2018-04-22T23:47:36.853Z,95.00
2018-04-22T23:50:04.355Z,94.50
2018-04-22T23:52:31.830Z,94.10
2018-04-22T23:55:00.115Z,93.70
2018-04-22T23:57:28.368Z,93.80
2018-04-22T23:59:55.863Z,93.70
